sensor_id;sensor_type;location;lat;lon;timestamp;pressure;altitude;pressure_sealevel;temperature;humidity
42621;BME280;28252;53.336;-6.298;2023-06-04T00:00:14;102010.19;;;23.56;95.52
42621;BME280;28252;53.336;-6.298;2023-06-04T00:00:46;102012.91;;;23.56;95.23
42621;BME280;28252;53.336;-6.298;2023-06-04T00:01:19;102012.06;;;23.55;95.12
42621;BME280;28252;53.336;-6.298;2023-06-04T00:01:54;102011.03;;;23.56;95.63
42621;BME280;28252;53.336;-6.298;2023-06-04T00:02:29;102014.78;;;23.55;95.15
42621;BME280;28252;53.336;-6.298;2023-06-04T00:03:02;102010.34;;;23.54;95.33
42621;BME280;28252;53.336;-6.298;2023-06-04T00:03:36;102007.63;;;23.54;95.60
42621;BME280;28252;53.336;-6.298;2023-06-04T00:04:09;102010.34;;;23.54;95.58
42621;BME280;28252;53.336;-6.298;2023-06-04T00:04:42;102009.50;;;23.54;95.25
42621;BME280;28252;53.336;-6.298;2023-06-04T00:05:21;102014.09;;;23.53;95.58
42621;BME280;28252;53.336;-6.298;2023-06-04T00:05:57;102014.09;;;23.53;95.17
42621;BME280;28252;53.336;-6.298;2023-06-04T00:06:36;102015.09;;;23.52;95.63
42621;BME280;28252;53.336;-6.298;2023-06-04T00:07:11;102014.09;;;23.53;95.50
42621;BME280;28252;53.336;-6.298;2023-06-04T00:07:42;102013.22;;;23.53;95.25
42621;BME280;28252;53.336;-6.298;2023-06-04T00:08:20;102016.09;;;23.51;95.59
42621;BME280;28252;53.336;-6.298;2023-06-04T00:08:53;102012.38;;;23.52;95.22
42621;BME280;28252;53.336;-6.298;2023-06-04T00:09:27;102016.97;;;23.52;95.22
42621;BME280;28252;53.336;-6.298;2023-06-04T00:10:01;102013.38;;;23.51;95.30
42621;BME280;28252;53.336;-6.298;2023-06-04T00:10:34;102016.97;;;23.52;95.54
42621;BME280;28252;53.336;-6.298;2023-06-04T00:11:09;102020.72;;;23.50;95.36
42621;BME280;28252;53.336;-6.298;2023-06-04T00:11:41;102019.88;;;23.50;95.23
42621;BME280;28252;53.336;-6.298;2023-06-04T00:12:14;102019.88;;;23.50;95.52
42621;BME280;28252;53.336;-6.298;2023-06-04T00:12:48;102014.44;;;23.50;95.21
42621;BME280;28252;53.336;-6.298;2023-06-04T00:13:19;102014.44;;;23.50;95.55
42621;BME280;28252;53.336;-6.298;2023-06-04T00:13:56;102015.44;;;23.49;95.26
42621;BME280;28252;53.336;-6.298;2023-06-04T00:14:29;102012.69;;;23.49;95.45
42621;BME280;28252;53.336;-6.298;2023-06-04T00:15:00;102014.59;;;23.48;95.47
42621;BME280;28252;53.336;-6.298;2023-06-04T00:15:35;102018.13;;;23.49;95.57
42621;BME280;28252;53.336;-6.298;2023-06-04T00:16:08;102015.44;;;23.49;95.26
42621;BME280;28252;53.336;-6.298;2023-06-04T00:16:39;102017.31;;;23.48;95.72
42621;BME280;28252;53.336;-6.298;2023-06-04T00:17:15;102011.88;;;23.48;95.28
42621;BME280;28252;53.336;-6.298;2023-06-04T00:17:46;102015.59;;;23.47;95.39
42621;BME280;28252;53.336;-6.298;2023-06-04T00:18:22;102011.03;;;23.48;95.65
42621;BME280;28252;53.336;-6.298;2023-06-04T00:18:56;102010.16;;;23.47;95.35
42621;BME280;28252;53.336;-6.298;2023-06-04T00:19:27;102017.47;;;23.47;95.28
42621;BME280;28252;53.336;-6.298;2023-06-04T00:20:03;102009.31;;;23.47;95.49
42621;BME280;28252;53.336;-6.298;2023-06-04T00:20:38;102014.75;;;23.47;95.74
42621;BME280;28252;53.336;-6.298;2023-06-04T00:22:20;102013.03;;;23.46;95.57
42621;BME280;28252;53.336;-6.298;2023-06-04T00:22:53;102007.56;;;23.46;95.78
42621;BME280;28252;53.336;-6.298;2023-06-04T00:23:26;102003.19;;;23.45;95.76
42621;BME280;28252;53.336;-6.298;2023-06-04T00:24:01;102013.19;;;23.44;95.36
42621;BME280;28252;53.336;-6.298;2023-06-04T00:24:33;102012.34;;;23.44;95.51
42621;BME280;28252;53.336;-6.298;2023-06-04T00:25:11;102012.34;;;23.44;95.33
42621;BME280;28252;53.336;-6.298;2023-06-04T00:25:45;102015.06;;;23.44;95.36
42621;BME280;28252;53.336;-6.298;2023-06-04T00:26:21;102013.38;;;23.43;95.87
42621;BME280;28252;53.336;-6.298;2023-06-04T00:26:56;102008.78;;;23.43;95.85
42621;BME280;28252;53.336;-6.298;2023-06-04T00:27:29;102009.78;;;23.42;95.80
42621;BME280;28252;53.336;-6.298;2023-06-04T00:28:05;102006.22;;;23.42;95.92
42621;BME280;28252;53.336;-6.298;2023-06-04T00:28:38;102010.66;;;23.43;95.83
42621;BME280;28252;53.336;-6.298;2023-06-04T00:29:13;102008.94;;;23.42;95.47
42621;BME280;28252;53.336;-6.298;2023-06-04T00:29:49;102015.38;;;23.41;95.77
42621;BME280;28252;53.336;-6.298;2023-06-04T00:30:22;102006.22;;;23.42;95.46
42621;BME280;28252;53.336;-6.298;2023-06-04T00:30:58;102007.22;;;23.41;95.49
42621;BME280;28252;53.336;-6.298;2023-06-04T00:31:29;102009.94;;;23.41;95.68
42621;BME280;28252;53.336;-6.298;2023-06-04T00:32:00;102004.50;;;23.41;95.67
42621;BME280;28252;53.336;-6.298;2023-06-04T00:32:31;102003.66;;;23.40;95.92
42621;BME280;28252;53.336;-6.298;2023-06-04T00:33:06;102009.09;;;23.40;95.78
42621;BME280;28252;53.336;-6.298;2023-06-04T00:33:40;102000.09;;;23.40;95.94
42621;BME280;28252;53.336;-6.298;2023-06-04T00:34:13;102008.25;;;23.40;96.04
42621;BME280;28252;53.336;-6.298;2023-06-04T00:35:32;102011.97;;;23.39;95.73
42621;BME280;28252;53.336;-6.298;2023-06-04T00:36:05;102010.25;;;23.38;95.85
42621;BME280;28252;53.336;-6.298;2023-06-04T00:36:36;102008.25;;;23.40;96.06
42621;BME280;28252;53.336;-6.298;2023-06-04T00:37:12;102007.53;;;23.38;95.98
42621;BME280;28252;53.336;-6.298;2023-06-04T00:37:45;102012.97;;;23.38;95.65
42621;BME280;28252;53.336;-6.298;2023-06-04T00:38:21;102011.97;;;23.39;95.62
42621;BME280;28252;53.336;-6.298;2023-06-04T00:38:52;102016.56;;;23.38;96.09
42621;BME280;28252;53.336;-6.298;2023-06-04T00:39:23;102010.25;;;23.38;95.70
42621;BME280;28252;53.336;-6.298;2023-06-04T00:39:56;102009.41;;;23.37;95.68
42621;BME280;28252;53.336;-6.298;2023-06-04T00:40:35;102003.13;;;23.37;95.65
42621;BME280;28252;53.336;-6.298;2023-06-04T00:41:08;102012.13;;;23.37;95.72
42621;BME280;28252;53.336;-6.298;2023-06-04T00:41:42;102003.13;;;23.37;96.04
42621;BME280;28252;53.336;-6.298;2023-06-04T00:42:13;102006.84;;;23.36;95.75
42621;BME280;28252;53.336;-6.298;2023-06-04T00:42:44;102004.13;;;23.36;96.02
42621;BME280;28252;53.336;-6.298;2023-06-04T00:43:19;102001.41;;;23.36;95.81
42621;BME280;28252;53.336;-6.298;2023-06-04T00:43:56;102003.28;;;23.35;95.80
42621;BME280;28252;53.336;-6.298;2023-06-04T00:44:31;102007.88;;;23.35;96.16
42621;BME280;28252;53.336;-6.298;2023-06-04T00:45:03;102008.88;;;23.34;95.71
42621;BME280;28252;53.336;-6.298;2023-06-04T00:45:38;102007.00;;;23.34;95.73
42621;BME280;28252;53.336;-6.298;2023-06-04T00:46:13;102003.44;;;23.34;95.86
42621;BME280;28252;53.336;-6.298;2023-06-04T00:46:51;102007.88;;;23.35;96.08
42621;BME280;28252;53.336;-6.298;2023-06-04T00:47:31;102008.88;;;23.34;95.99
42621;BME280;28252;53.336;-6.298;2023-06-04T00:48:08;102005.31;;;23.33;96.21
42621;BME280;28252;53.336;-6.298;2023-06-04T00:48:45;102004.44;;;23.33;95.75
42621;BME280;28252;53.336;-6.298;2023-06-04T00:49:18;102007.16;;;23.33;95.84
42621;BME280;28252;53.336;-6.298;2023-06-04T00:49:49;102001.72;;;23.33;96.00
42621;BME280;28252;53.336;-6.298;2023-06-04T00:50:20;102003.59;;;23.32;96.16
42621;BME280;28252;53.336;-6.298;2023-06-04T00:51:01;101997.31;;;23.31;96.06
42621;BME280;28252;53.336;-6.298;2023-06-04T00:51:34;102002.75;;;23.31;96.12
42621;BME280;28252;53.336;-6.298;2023-06-04T00:52:08;102002.75;;;23.31;96.08
42621;BME280;28252;53.336;-6.298;2023-06-04T00:52:42;102003.75;;;23.30;96.04
42621;BME280;28252;53.336;-6.298;2023-06-04T00:53:15;101997.47;;;23.30;96.07
42621;BME280;28252;53.336;-6.298;2023-06-04T00:53:51;102000.03;;;23.31;95.81
42621;BME280;28252;53.336;-6.298;2023-06-04T00:54:29;102005.47;;;23.31;96.17
42621;BME280;28252;53.336;-6.298;2023-06-04T00:55:03;101999.34;;;23.29;96.25
42621;BME280;28252;53.336;-6.298;2023-06-04T00:55:36;101997.47;;;23.30;95.90
42621;BME280;28252;53.336;-6.298;2023-06-04T00:56:09;102002.06;;;23.29;95.83
42621;BME280;28252;53.336;-6.298;2023-06-04T00:56:40;101995.75;;;23.29;96.12
42621;BME280;28252;53.336;-6.298;2023-06-04T00:57:12;102002.06;;;23.29;96.06
42621;BME280;28252;53.336;-6.298;2023-06-04T00:57:46;101999.34;;;23.29;96.07
42621;BME280;28252;53.336;-6.298;2023-06-04T00:58:19;101997.63;;;23.28;96.21
42621;BME280;28252;53.336;-6.298;2023-06-04T00:58:53;102003.06;;;23.28;96.30
42621;BME280;28252;53.336;-6.298;2023-06-04T00:59:26;102006.63;;;23.29;96.12
42621;BME280;28252;53.336;-6.298;2023-06-04T00:59:57;101999.50;;;23.28;96.32
42621;BME280;28252;53.336;-6.298;2023-06-04T01:01:51;101997.78;;;23.27;95.83
42621;BME280;28252;53.336;-6.298;2023-06-04T01:02:29;102002.38;;;23.26;96.33
42621;BME280;28252;53.336;-6.298;2023-06-04T01:03:07;102007.81;;;23.26;95.82
42621;BME280;28252;53.336;-6.298;2023-06-04T01:03:43;101999.66;;;23.26;96.34
42621;BME280;28252;53.336;-6.298;2023-06-04T01:04:20;101998.97;;;23.24;96.32
42621;BME280;28252;53.336;-6.298;2023-06-04T01:05:51;101999.81;;;23.25;96.40
42621;BME280;28252;53.336;-6.298;2023-06-04T01:06:38;101991.81;;;23.23;96.42
42621;BME280;28252;53.336;-6.298;2023-06-04T01:07:14;102002.69;;;23.23;95.99
42621;BME280;28252;53.336;-6.298;2023-06-04T01:07:48;102000.81;;;23.24;96.45
42621;BME280;28252;53.336;-6.298;2023-06-04T01:08:23;101999.13;;;23.23;95.94
42621;BME280;28252;53.336;-6.298;2023-06-04T01:08:59;102007.28;;;23.23;96.26
42621;BME280;28252;53.336;-6.298;2023-06-04T01:09:33;101990.09;;;23.22;96.05
42621;BME280;28252;53.336;-6.298;2023-06-04T01:10:07;101990.09;;;23.22;96.44
42621;BME280;28252;53.336;-6.298;2023-06-04T01:10:49;101999.28;;;23.21;96.32
42621;BME280;28252;53.336;-6.298;2023-06-04T01:11:36;101995.53;;;23.22;96.45
42621;BME280;28252;53.336;-6.298;2023-06-04T01:12:10;102000.97;;;23.22;96.24
42621;BME280;28252;53.336;-6.298;2023-06-04T01:12:42;101999.28;;;23.21;96.12
42621;BME280;28252;53.336;-6.298;2023-06-04T01:13:15;101996.56;;;23.21;96.46
42621;BME280;28252;53.336;-6.298;2023-06-04T01:13:46;101999.28;;;23.21;96.55
42621;BME280;28252;53.336;-6.298;2023-06-04T01:15:40;101993.00;;;23.21;96.50
42621;BME280;28252;53.336;-6.298;2023-06-04T01:16:13;102003.00;;;23.20;96.30
42621;BME280;28252;53.336;-6.298;2023-06-04T01:16:58;102001.31;;;23.19;96.45
42621;BME280;28252;53.336;-6.298;2023-06-04T01:17:43;101995.88;;;23.19;96.06
42621;BME280;28252;53.336;-6.298;2023-06-04T01:18:24;101998.59;;;23.19;96.10
42621;BME280;28252;53.336;-6.298;2023-06-04T01:19:00;101995.00;;;23.19;96.38
42621;BME280;28252;53.336;-6.298;2023-06-04T01:19:53;101993.31;;;23.18;96.34
42621;BME280;28252;53.336;-6.298;2023-06-04T01:21:08;101992.44;;;23.17;96.10
42621;BME280;28252;53.336;-6.298;2023-06-04T01:21:43;101998.91;;;23.16;96.22
42621;BME280;28252;53.336;-6.298;2023-06-04T01:22:22;102001.63;;;23.16;96.54
42621;BME280;28252;53.336;-6.298;2023-06-04T01:23:50;101989.91;;;23.16;96.11
42621;BME280;28252;53.336;-6.298;2023-06-04T01:24:33;101993.47;;;23.16;96.38
42621;BME280;28252;53.336;-6.298;2023-06-04T01:25:14;101996.19;;;23.16;96.47
42621;BME280;28252;53.336;-6.298;2023-06-04T01:25:55;101998.06;;;23.16;96.24
42621;BME280;28252;53.336;-6.298;2023-06-04T01:26:29;102000.78;;;23.16;96.44
42621;BME280;28252;53.336;-6.298;2023-06-04T01:27:01;101997.19;;;23.15;96.37
42621;BME280;28252;53.336;-6.298;2023-06-04T01:27:33;101994.47;;;23.15;96.13
42621;BME280;28252;53.336;-6.298;2023-06-04T01:28:07;101987.34;;;23.14;96.44
42621;BME280;28252;53.336;-6.298;2023-06-04T01:28:41;101992.78;;;23.14;96.22
42621;BME280;28252;53.336;-6.298;2023-06-04T01:29:15;101994.47;;;23.15;96.17
42621;BME280;28252;53.336;-6.298;2023-06-04T01:29:50;101986.47;;;23.13;96.38
42621;BME280;28252;53.336;-6.298;2023-06-04T01:30:25;101999.06;;;23.15;96.27
42621;BME280;28252;53.336;-6.298;2023-06-04T01:31:03;101998.22;;;23.14;96.52
42621;BME280;28252;53.336;-6.298;2023-06-04T01:31:37;101995.50;;;23.14;96.56
42621;BME280;28252;53.336;-6.298;2023-06-04T01:32:13;101994.63;;;23.13;96.30
42621;BME280;28252;53.336;-6.298;2023-06-04T01:32:46;101991.06;;;23.13;96.04
42621;BME280;28252;53.336;-6.298;2023-06-04T01:33:22;101996.50;;;23.13;96.15
42621;BME280;28252;53.336;-6.298;2023-06-04T01:34:01;101989.34;;;23.12;96.51
42621;BME280;28252;53.336;-6.298;2023-06-04T01:34:42;101990.22;;;23.12;96.13
42621;BME280;28252;53.336;-6.298;2023-06-04T01:35:14;101989.34;;;23.12;96.66
42621;BME280;28252;53.336;-6.298;2023-06-04T01:35:50;101989.34;;;23.12;96.43
42621;BME280;28252;53.336;-6.298;2023-06-04T01:36:26;101987.66;;;23.11;96.55
42621;BME280;28252;53.336;-6.298;2023-06-04T01:37:03;101994.78;;;23.12;96.44
42621;BME280;28252;53.336;-6.298;2023-06-04T01:37:35;101994.78;;;23.12;96.39
42621;BME280;28252;53.336;-6.298;2023-06-04T01:38:08;101987.66;;;23.11;96.46
42621;BME280;28252;53.336;-6.298;2023-06-04T01:38:39;101989.34;;;23.12;96.25
42621;BME280;28252;53.336;-6.298;2023-06-04T01:39:15;101985.94;;;23.10;96.22
42621;BME280;28252;53.336;-6.298;2023-06-04T01:39:48;101993.09;;;23.11;96.34
42621;BME280;28252;53.336;-6.298;2023-06-04T01:40:22;101986.81;;;23.10;96.29
42621;BME280;28252;53.336;-6.298;2023-06-04T01:40:57;101983.22;;;23.10;96.21
42621;BME280;28252;53.336;-6.298;2023-06-04T01:44:11;101986.09;;;23.08;96.77
42621;BME280;28252;53.336;-6.298;2023-06-04T01:44:46;101982.53;;;23.08;96.38
42621;BME280;28252;53.336;-6.298;2023-06-04T01:45:27;101985.25;;;23.08;96.67
42621;BME280;28252;53.336;-6.298;2023-06-04T01:46:05;101980.81;;;23.07;96.47
42621;BME280;28252;53.336;-6.298;2023-06-04T01:46:36;101979.97;;;23.06;96.69
42621;BME280;28252;53.336;-6.298;2023-06-04T01:47:10;101980.81;;;23.07;96.59
42621;BME280;28252;53.336;-6.298;2023-06-04T01:47:41;101986.25;;;23.07;96.66
42621;BME280;28252;53.336;-6.298;2023-06-04T01:48:12;101985.41;;;23.06;96.84
42621;BME280;28252;53.336;-6.298;2023-06-04T01:48:48;101979.13;;;23.06;96.73
42621;BME280;28252;53.336;-6.298;2023-06-04T01:49:22;101984.56;;;23.06;96.50
42621;BME280;28252;53.336;-6.298;2023-06-04T01:49:53;101984.56;;;23.06;96.83
42621;BME280;28252;53.336;-6.298;2023-06-04T01:50:28;101982.81;;;23.05;96.84
42621;BME280;28252;53.336;-6.298;2023-06-04T01:51:05;101981.84;;;23.06;96.74
42621;BME280;28252;53.336;-6.298;2023-06-04T01:51:36;101990.00;;;23.06;96.73
42621;BME280;28252;53.336;-6.298;2023-06-04T01:53:01;101982.81;;;23.05;96.61
42621;BME280;28252;53.336;-6.298;2023-06-04T01:53:37;101991.78;;;23.05;96.56
42621;BME280;28252;53.336;-6.298;2023-06-04T01:54:13;101977.38;;;23.05;96.86
42621;BME280;28252;53.336;-6.298;2023-06-04T01:54:44;101984.84;;;23.03;96.69
42621;BME280;28252;53.336;-6.298;2023-06-04T01:55:24;101981.13;;;23.04;96.85
42621;BME280;28252;53.336;-6.298;2023-06-04T01:56:04;101984.84;;;23.03;96.57
42621;BME280;28252;53.336;-6.298;2023-06-04T01:56:38;101980.25;;;23.03;96.69
42621;BME280;28252;53.336;-6.298;2023-06-04T01:57:09;101984.00;;;23.02;96.62
42621;BME280;28252;53.336;-6.298;2023-06-04T01:57:45;101988.53;;;23.02;96.80
42621;BME280;28252;53.336;-6.298;2023-06-04T01:58:16;101985.84;;;23.02;96.77
42621;BME280;28252;53.336;-6.298;2023-06-04T01:58:56;101980.41;;;23.02;96.73
42621;BME280;28252;53.336;-6.298;2023-06-04T01:59:29;101980.41;;;23.02;96.78
42621;BME280;28252;53.336;-6.298;2023-06-04T02:00:03;101983.13;;;23.02;96.87
42621;BME280;28252;53.336;-6.298;2023-06-04T02:00:43;101980.41;;;23.02;97.06
42621;BME280;28252;53.336;-6.298;2023-06-04T02:01:15;101976.84;;;23.01;96.90
42621;BME280;28252;53.336;-6.298;2023-06-04T02:01:52;101970.56;;;23.01;96.79
42621;BME280;28252;53.336;-6.298;2023-06-04T02:02:25;101976.00;;;23.01;96.88
42621;BME280;28252;53.336;-6.298;2023-06-04T02:02:56;101986.84;;;23.01;96.83
42621;BME280;28252;53.336;-6.298;2023-06-04T02:03:30;101982.28;;;23.01;96.73
42621;BME280;28252;53.336;-6.298;2023-06-04T02:04:07;101983.25;;;23.00;97.00
42621;BME280;28252;53.336;-6.298;2023-06-04T02:04:43;101984.28;;;22.99;97.00
42621;BME280;28252;53.336;-6.298;2023-06-04T02:05:17;101990.56;;;23.00;96.91
42621;BME280;28252;53.336;-6.298;2023-06-04T02:05:51;101982.41;;;23.00;96.98
42621;BME280;28252;53.336;-6.298;2023-06-04T02:06:27;101983.47;;;22.99;96.63
42621;BME280;28252;53.336;-6.298;2023-06-04T02:07:02;101983.47;;;22.99;96.57
42621;BME280;28252;53.336;-6.298;2023-06-04T02:07:36;101988.88;;;22.99;97.09
42621;BME280;28252;53.336;-6.298;2023-06-04T02:08:11;101986.16;;;22.99;96.64
42621;BME280;28252;53.336;-6.298;2023-06-04T02:08:54;101987.16;;;22.98;96.97
42621;BME280;28252;53.336;-6.298;2023-06-04T02:09:27;101979.00;;;22.98;96.67
42621;BME280;28252;53.336;-6.298;2023-06-04T02:10:03;101987.16;;;22.98;96.58
42621;BME280;28252;53.336;-6.298;2023-06-04T02:10:38;101986.31;;;22.97;96.83
42621;BME280;28252;53.336;-6.298;2023-06-04T02:12:14;101984.59;;;22.96;96.60
42621;BME280;28252;53.336;-6.298;2023-06-04T02:13:19;101986.31;;;22.97;96.59
42621;BME280;28252;53.336;-6.298;2023-06-04T02:13:45;101988.16;;;22.97;96.94
42621;BME280;28252;53.336;-6.298;2023-06-04T02:15:49;101988.50;;;22.93;96.80
42621;BME280;28252;53.336;-6.298;2023-06-04T02:16:22;101985.78;;;22.93;96.70
42621;BME280;28252;53.336;-6.298;2023-06-04T02:16:58;101992.06;;;22.94;97.16
42621;BME280;28252;53.336;-6.298;2023-06-04T02:17:29;101983.06;;;22.93;96.84
42621;BME280;28252;53.336;-6.298;2023-06-04T02:18:13;101990.34;;;22.93;97.14
42621;BME280;28252;53.336;-6.298;2023-06-04T02:20:34;101990.50;;;22.91;96.60
42621;BME280;28252;53.336;-6.298;2023-06-04T02:21:10;101993.22;;;22.91;96.69
42621;BME280;28252;53.336;-6.298;2023-06-04T02:21:46;101993.22;;;22.91;97.05
42621;BME280;28252;53.336;-6.298;2023-06-04T02:22:23;101993.22;;;22.91;96.64
42621;BME280;28252;53.336;-6.298;2023-06-04T02:23:00;101994.25;;;22.90;97.13
42621;BME280;28252;53.336;-6.298;2023-06-04T02:23:36;101988.81;;;22.90;97.14
42621;BME280;28252;53.336;-6.298;2023-06-04T02:24:10;101994.25;;;22.90;97.16
42621;BME280;28252;53.336;-6.298;2023-06-04T02:24:41;101993.38;;;22.90;96.89
42621;BME280;28252;53.336;-6.298;2023-06-04T02:25:15;101991.53;;;22.90;96.99
42621;BME280;28252;53.336;-6.298;2023-06-04T02:25:48;101985.22;;;22.90;96.89
42621;BME280;28252;53.336;-6.298;2023-06-04T02:26:26;101991.69;;;22.89;96.82
42621;BME280;28252;53.336;-6.298;2023-06-04T02:26:59;101988.13;;;22.88;96.96
42621;BME280;28252;53.336;-6.298;2023-06-04T02:27:32;101991.69;;;22.89;97.19
42621;BME280;28252;53.336;-6.298;2023-06-04T02:28:06;101992.53;;;22.89;96.90
42621;BME280;28252;53.336;-6.298;2023-06-04T02:28:39;101986.41;;;22.87;97.19
42621;BME280;28252;53.336;-6.298;2023-06-04T02:29:12;101988.13;;;22.88;97.12
42621;BME280;28252;53.336;-6.298;2023-06-04T02:29:44;101992.69;;;22.88;97.07
42621;BME280;28252;53.336;-6.298;2023-06-04T02:30:19;101988.28;;;22.87;96.65
42621;BME280;28252;53.336;-6.298;2023-06-04T02:30:50;101992.69;;;22.88;96.91
42621;BME280;28252;53.336;-6.298;2023-06-04T02:31:24;101990.13;;;22.86;96.80
42621;BME280;28252;53.336;-6.298;2023-06-04T02:32:01;101991.84;;;22.87;96.96
42621;BME280;28252;53.336;-6.298;2023-06-04T02:32:37;101984.69;;;22.86;97.04
42621;BME280;28252;53.336;-6.298;2023-06-04T02:33:16;101985.72;;;22.85;96.61
42621;BME280;28252;53.336;-6.298;2023-06-04T02:33:51;101982.84;;;22.87;96.86
42621;BME280;28252;53.336;-6.298;2023-06-04T02:34:31;101993.00;;;22.85;97.13
42621;BME280;28252;53.336;-6.298;2023-06-04T02:35:05;101988.44;;;22.85;97.12
42621;BME280;28252;53.336;-6.298;2023-06-04T02:35:38;101985.03;;;22.83;97.01
42621;BME280;28252;53.336;-6.298;2023-06-04T02:36:12;101985.03;;;22.83;96.79
42621;BME280;28252;53.336;-6.298;2023-06-04T02:36:48;101991.31;;;22.84;96.73
42621;BME280;28252;53.336;-6.298;2023-06-04T02:37:21;101990.47;;;22.83;96.91
42621;BME280;28252;53.336;-6.298;2023-06-04T02:37:55;101983.31;;;22.82;97.19
42621;BME280;28252;53.336;-6.298;2023-06-04T02:38:31;101988.75;;;22.82;97.10
42621;BME280;28252;53.336;-6.298;2023-06-04T02:39:05;101988.75;;;22.82;97.18
42621;BME280;28252;53.336;-6.298;2023-06-04T02:39:41;101988.75;;;22.82;96.75
42621;BME280;28252;53.336;-6.298;2023-06-04T02:40:14;101992.31;;;22.83;96.68
42621;BME280;28252;53.336;-6.298;2023-06-04T02:40:47;101994.16;;;22.82;96.71
42621;BME280;28252;53.336;-6.298;2023-06-04T02:41:23;101990.75;;;22.80;96.80
42621;BME280;28252;53.336;-6.298;2023-06-04T02:41:57;101992.44;;;22.81;96.78
42621;BME280;28252;53.336;-6.298;2023-06-04T02:42:30;101992.44;;;22.81;96.66
42621;BME280;28252;53.336;-6.298;2023-06-04T02:43:04;101997.88;;;22.81;96.84
42621;BME280;28252;53.336;-6.298;2023-06-04T02:43:37;101984.47;;;22.80;97.16
42621;BME280;28252;53.336;-6.298;2023-06-04T02:44:12;101990.75;;;22.80;96.75
42621;BME280;28252;53.336;-6.298;2023-06-04T02:44:46;101985.50;;;22.79;97.08
42621;BME280;28252;53.336;-6.298;2023-06-04T02:45:19;101989.03;;;22.79;97.07
42621;BME280;28252;53.336;-6.298;2023-06-04T02:45:50;101987.31;;;22.78;96.84
42621;BME280;28252;53.336;-6.298;2023-06-04T02:47:16;101987.31;;;22.78;97.07
42621;BME280;28252;53.336;-6.298;2023-06-04T02:47:49;101994.47;;;22.79;96.72
42621;BME280;28252;53.336;-6.298;2023-06-04T02:48:20;101986.47;;;22.78;96.64
42621;BME280;28252;53.336;-6.298;2023-06-04T02:48:51;101983.91;;;22.76;96.74
42621;BME280;28252;53.336;-6.298;2023-06-04T02:49:24;101986.47;;;22.78;96.75
42621;BME280;28252;53.336;-6.298;2023-06-04T02:49:57;101987.50;;;22.77;96.95
42621;BME280;28252;53.336;-6.298;2023-06-04T02:50:30;101983.06;;;22.75;97.14
42621;BME280;28252;53.336;-6.298;2023-06-04T02:51:01;101986.63;;;22.76;96.88
42621;BME280;28252;53.336;-6.298;2023-06-04T02:51:34;101989.34;;;22.76;96.70
42621;BME280;28252;53.336;-6.298;2023-06-04T02:52:15;101984.94;;;22.75;96.89
42621;BME280;28252;53.336;-6.298;2023-06-04T02:52:50;101989.34;;;22.76;97.10
42621;BME280;28252;53.336;-6.298;2023-06-04T02:53:22;101988.50;;;22.75;96.72
42621;BME280;28252;53.336;-6.298;2023-06-04T02:53:57;101980.50;;;22.74;97.18
42621;BME280;28252;53.336;-6.298;2023-06-04T02:54:30;101985.94;;;22.74;97.14
42621;BME280;28252;53.336;-6.298;2023-06-04T02:55:04;101991.38;;;22.74;96.90
42621;BME280;28252;53.336;-6.298;2023-06-04T02:55:36;101985.94;;;22.74;96.91
42621;BME280;28252;53.336;-6.298;2023-06-04T02:56:07;101983.22;;;22.74;96.78
42621;BME280;28252;53.336;-6.298;2023-06-04T02:56:43;101985.94;;;22.74;96.80
42621;BME280;28252;53.336;-6.298;2023-06-04T02:57:16;101985.94;;;22.74;96.91
42621;BME280;28252;53.336;-6.298;2023-06-04T02:57:51;101989.66;;;22.73;96.67
42621;BME280;28252;53.336;-6.298;2023-06-04T02:58:24;101986.94;;;22.73;96.67
42621;BME280;28252;53.336;-6.298;2023-06-04T02:58:59;101984.22;;;22.73;96.73
42621;BME280;28252;53.336;-6.298;2023-06-04T02:59:34;101982.53;;;22.72;97.04
42621;BME280;28252;53.336;-6.298;2023-06-04T03:00:07;101987.13;;;22.71;97.12
42621;BME280;28252;53.336;-6.298;2023-06-04T03:00:49;101983.53;;;22.71;96.73
42621;BME280;28252;53.336;-6.298;2023-06-04T03:01:20;101987.13;;;22.71;96.71
42621;BME280;28252;53.336;-6.298;2023-06-04T03:01:54;101982.53;;;22.72;97.11
42621;BME280;28252;53.336;-6.298;2023-06-04T03:02:25;101986.25;;;22.71;97.04
42621;BME280;28252;53.336;-6.298;2023-06-04T03:02:56;101982.69;;;22.70;96.88
42621;BME280;28252;53.336;-6.298;2023-06-04T03:03:32;101984.41;;;22.71;97.05
42621;BME280;28252;53.336;-6.298;2023-06-04T03:04:06;101978.09;;;22.71;96.74
42621;BME280;28252;53.336;-6.298;2023-06-04T03:04:42;101979.97;;;22.70;97.08
42621;BME280;28252;53.336;-6.298;2023-06-04T03:05:21;101979.13;;;22.70;96.84
42621;BME280;28252;53.336;-6.298;2023-06-04T03:05:59;101987.28;;;22.70;96.58
42621;BME280;28252;53.336;-6.298;2023-06-04T03:06:33;101979.97;;;22.70;97.14
42621;BME280;28252;53.336;-6.298;2023-06-04T03:07:13;101979.13;;;22.70;96.71
42621;BME280;28252;53.336;-6.298;2023-06-04T03:07:51;101980.13;;;22.69;96.70
42621;BME280;28252;53.336;-6.298;2023-06-04T03:08:24;101988.28;;;22.69;97.16
42621;BME280;28252;53.336;-6.298;2023-06-04T03:09:00;101982.84;;;22.69;97.08
42621;BME280;28252;53.336;-6.298;2023-06-04T03:09:36;101976.56;;;22.68;97.05
42621;BME280;28252;53.336;-6.298;2023-06-04T03:10:09;101982.00;;;22.68;96.81
42621;BME280;28252;53.336;-6.298;2023-06-04T03:10:42;101978.41;;;22.68;96.95
42621;BME280;28252;53.336;-6.298;2023-06-04T03:11:16;101982.00;;;22.68;96.61
42621;BME280;28252;53.336;-6.298;2023-06-04T03:11:47;101984.72;;;22.68;96.95
42621;BME280;28252;53.336;-6.298;2023-06-04T03:12:20;101980.28;;;22.67;97.13
42621;BME280;28252;53.336;-6.298;2023-06-04T03:12:51;101981.13;;;22.68;97.10
42621;BME280;28252;53.336;-6.298;2023-06-04T03:13:24;101979.44;;;22.67;97.18
42621;BME280;28252;53.336;-6.298;2023-06-04T03:13:58;101980.28;;;22.67;97.18
42621;BME280;28252;53.336;-6.298;2023-06-04T03:14:35;101977.56;;;22.67;96.73
42621;BME280;28252;53.336;-6.298;2023-06-04T03:15:08;101977.72;;;22.66;96.75